Weather at Wysokie Mazowieckie Air Base [CLOSED]

Public forecast

Using degrees Celsius for public forecast. Weather courtesy of forecast.io.

Closest aviation weather report (METAR) to Wysokie Mazowieckie Air Base

Closest report is Olsztyn-Mazury Airport, 66.0 nm (122.2 km) WNW.

2023/03/29 01:00 (retrieved 15 minutes ago)

EPSY 290100Z 28003KT CAVOK M05/M09 Q1018

Closest aviation forecast (TAF) to Wysokie Mazowieckie Air Base

Forecast is more than 12 hours old.

Closest forecast is ┼áiauliai International Airport, 180.4 nm (334.2 km) N.

2023/03/27 06:03 (retrieved 2 days ago)

TAF TAF EYSA 270500Z 2706/2718 27012KT 9000 SCT010 BKN015 TEMPO 2706/2711 5000 SHRA BKN005 BKN012CB